createdAt,value
2019-04-04T00:01:37.940Z,14.33
2019-04-04T00:04:08.946Z,11.80
2019-04-04T00:06:39.907Z,12.90
2019-04-04T00:09:11.076Z,13.18
2019-04-04T00:11:42.059Z,14.85
2019-04-04T00:14:13.526Z,12.75
2019-04-04T00:16:46.733Z,13.28
2019-04-04T00:19:18.280Z,12.05
2019-04-04T00:21:49.207Z,13.90
2019-04-04T00:24:20.332Z,11.80
2019-04-04T00:26:51.282Z,12.90
2019-04-04T00:29:22.252Z,14.13
2019-04-04T00:31:53.269Z,13.30
2019-04-04T00:34:27.747Z,12.82
2019-04-04T00:36:56.885Z,15.60
2019-04-04T00:39:27.857Z,16.97
2019-04-04T00:41:58.801Z,15.30
2019-04-04T00:44:29.790Z,13.30
2019-04-04T00:47:01.807Z,15.45
2019-04-04T00:49:35.528Z,19.05
2019-04-04T00:52:10.056Z,13.83
2019-04-04T00:54:39.594Z,13.20
2019-04-04T00:57:10.610Z,14.45
2019-04-04T00:59:41.583Z,16.73
2019-04-04T01:02:12.549Z,17.25
2019-04-04T01:04:43.521Z,15.72
2019-04-04T01:07:14.482Z,15.48
2019-04-04T01:09:45.947Z,13.38
2019-04-04T01:12:18.104Z,14.43
2019-04-04T01:14:49.093Z,17.70
2019-04-04T01:17:20.030Z,16.77
2019-04-04T01:19:51.012Z,15.95
2019-04-04T01:22:23.051Z,19.73
2019-04-04T01:24:54.715Z,17.35
2019-04-04T01:27:25.696Z,15.90
2019-04-04T01:29:56.640Z,17.52
2019-04-04T01:32:27.607Z,18.45
2019-04-04T01:34:58.571Z,21.77
2019-04-04T01:37:29.533Z,18.02
2019-04-04T01:40:02.261Z,18.25
2019-04-04T01:42:33.186Z,19.27
2019-04-04T01:45:05.822Z,16.77
2019-04-04T01:47:36.805Z,17.35
2019-04-04T01:50:07.998Z,16.67
2019-04-04T01:52:38.975Z,17.70
2019-04-04T01:55:09.905Z,17.55
2019-04-04T01:57:40.887Z,20.82
2019-04-04T02:00:15.091Z,16.87
2019-04-04T02:02:45.811Z,16.50
2019-04-04T02:05:16.752Z,18.12
2019-04-04T02:07:47.730Z,24.57
2019-04-04T02:10:18.677Z,23.85
2019-04-04T02:12:49.652Z,21.85
2019-04-04T02:15:20.628Z,19.07
2019-04-04T02:17:52.980Z,18.48
2019-04-04T02:20:25.006Z,16.07
2019-04-04T02:22:57.135Z,15.05
2019-04-04T02:25:28.074Z,16.75
2019-04-04T02:27:59.347Z,16.85
2019-04-04T02:30:30.384Z,15.35
2019-04-04T02:33:01.369Z,14.85
2019-04-04T02:35:32.307Z,13.30
2019-04-04T02:38:03.273Z,15.00
2019-04-04T02:40:34.224Z,18.98
2019-04-04T02:43:05.211Z,12.63
2019-04-04T02:45:38.691Z,13.20
2019-04-04T02:48:09.078Z,14.43
2019-04-04T02:50:40.097Z,16.23
2019-04-04T02:53:11.138Z,13.15
2019-04-04T02:55:42.090Z,16.40
2019-04-04T02:58:15.296Z,14.38
2019-04-04T03:00:46.728Z,15.13
2019-04-04T03:03:17.701Z,15.08
2019-04-04T03:05:51.934Z,15.43
2019-04-04T03:08:21.347Z,14.07
2019-04-04T03:10:52.328Z,21.02
2019-04-04T03:13:23.264Z,18.90
2019-04-04T03:15:54.240Z,21.10
2019-04-04T03:18:25.182Z,17.48
2019-04-04T03:20:56.180Z,22.17
2019-04-04T03:23:27.143Z,17.30
2019-04-04T03:25:58.182Z,16.40
2019-04-04T03:28:31.361Z,18.02
2019-04-04T03:31:03.598Z,14.83
2019-04-04T03:33:34.514Z,16.87
2019-04-04T03:36:05.496Z,15.70
2019-04-04T03:38:36.503Z,12.35
2019-04-04T03:41:07.485Z,15.15
2019-04-04T03:43:38.417Z,13.38
2019-04-04T03:46:09.382Z,12.47
2019-04-04T03:48:40.384Z,12.43
2019-04-04T03:51:11.354Z,15.25
2019-04-04T03:53:43.855Z,15.88
2019-04-04T03:56:14.823Z,14.93
2019-04-04T03:58:45.760Z,17.55
2019-04-04T04:01:16.732Z,17.10
2019-04-04T04:03:48.681Z,15.78
2019-04-04T04:06:20.651Z,15.58
2019-04-04T04:08:54.841Z,15.70
2019-04-04T04:11:24.239Z,39.25
2019-04-04T04:13:55.287Z,23.15
2019-04-04T04:16:26.255Z,15.25
2019-04-04T04:18:57.194Z,17.12
2019-04-04T04:21:28.155Z,15.78
2019-04-04T04:23:59.092Z,15.40
2019-04-04T04:26:30.073Z,18.23
2019-04-04T04:29:01.007Z,31.40
2019-04-04T04:31:31.974Z,24.07
2019-04-04T04:34:02.922Z,16.62
2019-04-04T04:36:34.117Z,16.82
2019-04-04T04:39:06.457Z,21.55
2019-04-04T04:41:37.438Z,17.50
2019-04-04T04:44:08.387Z,19.87
2019-04-04T04:46:39.417Z,17.25
2019-04-04T04:49:10.469Z,21.90
2019-04-04T04:51:44.139Z,23.38
2019-04-04T04:54:14.083Z,17.75
2019-04-04T04:56:45.057Z,17.42
2019-04-04T04:59:16.003Z,16.75
2019-04-04T05:01:50.220Z,18.80
2019-04-04T05:04:19.620Z,16.75
2019-04-04T05:06:50.796Z,17.62
2019-04-04T05:09:21.733Z,17.42
2019-04-04T05:11:52.704Z,16.65
2019-04-04T05:14:23.675Z,17.00
2019-04-04T05:16:54.659Z,23.60
2019-04-04T05:19:25.762Z,18.60
2019-04-04T05:21:56.704Z,21.97
2019-04-04T05:24:27.791Z,14.47
2019-04-04T05:26:59.000Z,18.50
2019-04-04T05:29:30.023Z,18.62
2019-04-04T05:32:01.016Z,16.57
2019-04-04T05:34:32.003Z,16.12
2019-04-04T05:37:02.996Z,15.30
2019-04-04T05:39:33.985Z,18.77
2019-04-04T05:42:04.949Z,17.05
2019-04-04T05:44:35.933Z,17.00
2019-04-04T05:47:06.877Z,16.15
2019-04-04T05:49:38.897Z,17.12
2019-04-04T05:52:10.320Z,29.63
2019-04-04T05:54:41.302Z,16.75
2019-04-04T05:57:12.239Z,20.50
2019-04-04T05:59:43.210Z,15.98
2019-04-04T06:02:14.171Z,16.90
2019-04-04T06:04:45.202Z,14.55
2019-04-04T06:07:16.437Z,16.40
2019-04-04T06:09:47.691Z,42.13
2019-04-04T06:12:18.622Z,29.48
2019-04-04T06:14:49.591Z,26.23
2019-04-04T06:17:20.572Z,24.77
2019-04-04T06:19:52.683Z,19.85
2019-04-04T06:22:25.221Z,19.02
2019-04-04T06:24:59.130Z,16.82
2019-04-04T06:27:28.969Z,18.95
2019-04-04T06:29:59.941Z,14.78
2019-04-04T06:32:31.158Z,19.27
2019-04-04T06:35:02.636Z,18.32
2019-04-04T06:37:34.459Z,20.35
2019-04-04T06:40:07.604Z,20.80
2019-04-04T06:42:38.575Z,20.48
2019-04-04T06:45:09.730Z,20.43
2019-04-04T06:47:40.710Z,18.77
2019-04-04T06:50:11.646Z,14.50
2019-04-04T06:52:42.625Z,19.27
2019-04-04T06:55:13.552Z,25.50
2019-04-04T06:57:44.526Z,16.70
2019-04-04T07:00:16.518Z,16.60
2019-04-04T07:02:47.712Z,18.55
2019-04-04T07:05:19.648Z,17.20
2019-04-04T07:07:50.614Z,18.30
2019-04-04T07:10:22.062Z,25.50
2019-04-04T07:13:09.253Z,22.48
2019-04-04T07:15:25.854Z,21.93
2019-04-04T07:17:56.823Z,18.57
2019-04-04T07:20:28.884Z,23.73
2019-04-04T07:22:59.907Z,17.90
2019-04-04T07:25:30.845Z,15.23
2019-04-04T07:28:01.817Z,18.07
2019-04-04T07:30:32.776Z,22.67
2019-04-04T07:33:03.750Z,17.27
2019-04-04T07:35:34.699Z,16.52
2019-04-04T07:38:05.606Z,17.10
2019-04-04T07:40:37.393Z,14.35
2019-04-04T07:43:08.804Z,15.05
2019-04-04T07:45:39.820Z,21.02
2019-04-04T07:48:12.307Z,16.70
2019-04-04T07:50:43.420Z,13.98
2019-04-04T07:53:14.394Z,17.02
2019-04-04T07:55:45.410Z,12.58
2019-04-04T07:58:16.395Z,12.13
2019-04-04T08:00:47.449Z,11.97
2019-04-04T08:03:18.431Z,11.50
2019-04-04T08:05:49.387Z,14.45
2019-04-04T08:08:20.367Z,13.03
2019-04-04T08:10:51.312Z,12.03
2019-04-04T08:13:22.288Z,11.80
2019-04-04T08:15:53.233Z,12.43
2019-04-04T08:18:24.216Z,11.22
2019-04-04T08:20:55.227Z,9.73
2019-04-04T08:23:26.328Z,10.25
2019-04-04T08:25:57.339Z,10.82
2019-04-04T08:28:28.318Z,12.25
2019-04-04T08:30:59.262Z,10.90
2019-04-04T08:33:30.236Z,12.63
2019-04-04T08:36:06.338Z,13.45
2019-04-04T08:38:34.862Z,16.25
2019-04-04T08:41:05.908Z,22.50
2019-04-04T08:43:36.885Z,10.53
2019-04-04T08:46:07.834Z,9.95
2019-04-04T08:48:38.825Z,8.90
2019-04-04T08:51:09.767Z,8.73
2019-04-04T08:53:40.758Z,8.48
2019-04-04T08:56:11.740Z,7.45
2019-04-04T08:58:42.687Z,9.03
2019-04-04T09:01:13.673Z,7.25
2019-04-04T09:03:44.624Z,8.78
2019-04-04T09:06:15.620Z,7.60
2019-04-04T09:08:46.632Z,7.87
2019-04-04T09:11:17.611Z,7.53
2019-04-04T09:13:48.609Z,7.62
2019-04-04T09:16:19.576Z,7.10
2019-04-04T09:18:50.450Z,5.50
2019-04-04T09:21:21.444Z,11.93
2019-04-04T09:23:52.395Z,9.33
2019-04-04T09:26:23.409Z,9.93
2019-04-04T09:28:55.457Z,17.55
2019-04-04T09:31:26.431Z,12.00
2019-04-04T09:33:57.413Z,12.25
2019-04-04T09:36:28.403Z,10.32
2019-04-04T09:38:59.957Z,14.25
2019-04-04T09:41:30.940Z,24.23
2019-04-04T09:44:01.887Z,12.35
2019-04-04T09:46:32.861Z,21.70
2019-04-04T09:49:03.813Z,11.48
2019-04-04T09:51:34.792Z,11.15
2019-04-04T09:54:05.867Z,11.10
2019-04-04T09:56:36.895Z,12.00
2019-04-04T09:59:07.846Z,14.65
2019-04-04T10:01:38.839Z,12.70
2019-04-04T10:04:09.792Z,17.27
2019-04-04T10:06:40.785Z,26.07
2019-04-04T10:09:15.969Z,20.70
2019-04-04T10:11:44.428Z,21.62
2019-04-04T10:14:15.384Z,19.40
2019-04-04T10:16:46.382Z,21.75
2019-04-04T10:19:17.909Z,13.45
2019-04-04T10:21:48.911Z,17.57
2019-04-04T10:24:19.876Z,19.05
2019-04-04T10:26:50.927Z,20.77
2019-04-04T10:29:21.876Z,18.32
2019-04-04T10:31:52.867Z,27.95
2019-04-04T10:34:23.944Z,46.42
2019-04-04T10:36:54.917Z,25.23
2019-04-04T10:39:28.954Z,23.07
2019-04-04T10:41:58.567Z,26.23
2019-04-04T10:44:29.587Z,20.77
2019-04-04T10:47:00.542Z,21.03
2019-04-04T10:49:31.520Z,28.10
2019-04-04T10:52:02.472Z,22.50
2019-04-04T10:54:33.464Z,24.50
2019-04-04T10:57:04.436Z,22.50
2019-04-04T10:59:35.420Z,25.70
2019-04-04T11:02:06.372Z,21.73
2019-04-04T11:04:37.363Z,28.73
2019-04-04T11:07:08.316Z,30.50
2019-04-04T11:09:42.262Z,23.00
2019-04-04T11:12:14.635Z,33.50
2019-04-04T11:14:45.669Z,25.80
2019-04-04T11:17:16.659Z,25.13
2019-04-04T11:19:47.642Z,26.63
2019-04-04T11:22:18.629Z,27.23
2019-04-04T11:24:49.613Z,30.43
2019-04-04T11:27:20.567Z,25.43
2019-04-04T11:29:51.550Z,28.00
2019-04-04T11:32:22.506Z,30.20
2019-04-04T11:34:53.782Z,31.07
2019-04-04T11:37:24.934Z,33.27
2019-04-04T11:39:55.903Z,29.03
2019-04-04T11:42:26.859Z,44.40
2019-04-04T11:44:57.834Z,31.47
2019-04-04T11:47:28.798Z,63.60
2019-04-04T11:49:59.821Z,27.93
2019-04-04T11:52:30.811Z,36.30
2019-04-04T11:55:02.603Z,26.97
2019-04-04T11:57:33.560Z,30.13
2019-04-04T12:00:07.041Z,27.90
2019-04-04T12:02:38.040Z,28.63
2019-04-04T12:05:09.650Z,29.97
2019-04-04T12:07:40.605Z,36.83
2019-04-04T12:10:12.218Z,27.67
2019-04-04T12:12:43.206Z,29.13
2019-04-04T12:15:14.353Z,31.37
2019-04-04T12:17:45.354Z,28.13
2019-04-04T12:20:16.416Z,32.07
2019-04-04T12:22:47.393Z,35.37
2019-04-04T12:25:18.341Z,23.40
2019-04-04T12:27:49.351Z,25.17
2019-04-04T12:30:20.991Z,29.83
2019-04-04T12:32:52.151Z,31.13
2019-04-04T12:35:23.096Z,36.30
2019-04-04T12:37:54.077Z,33.20
2019-04-04T12:40:25.028Z,25.50
2019-04-04T12:42:56.216Z,24.50
2019-04-04T12:45:27.180Z,34.43
2019-04-04T12:47:58.256Z,24.30
2019-04-04T12:50:29.202Z,25.03
2019-04-04T12:53:00.269Z,24.40
2019-04-04T12:55:31.217Z,43.67
2019-04-04T12:58:02.195Z,25.63
2019-04-04T13:00:34.221Z,27.60
2019-04-04T13:03:05.204Z,27.00
2019-04-04T13:05:36.147Z,28.83
2019-04-04T13:08:07.215Z,22.47
2019-04-04T13:10:38.198Z,28.50
2019-04-04T13:13:09.142Z,24.10
2019-04-04T13:15:40.126Z,27.37
2019-04-04T13:18:11.083Z,28.93
2019-04-04T13:20:42.067Z,26.60
2019-04-04T13:23:13.032Z,28.27
2019-04-04T13:25:44.033Z,22.87
2019-04-04T13:28:15.052Z,22.80
2019-04-04T13:30:46.044Z,27.00
2019-04-04T13:33:16.997Z,27.43
2019-04-04T13:35:47.988Z,26.10
2019-04-04T13:38:18.959Z,24.43
2019-04-04T13:40:49.945Z,26.48
2019-04-04T13:43:22.540Z,23.60
2019-04-04T13:45:54.275Z,23.05
2019-04-04T13:48:25.249Z,24.45
2019-04-04T13:50:56.237Z,45.25
2019-04-04T13:53:27.184Z,27.05
2019-04-04T13:55:59.165Z,23.45
2019-04-04T13:58:30.415Z,21.00
2019-04-04T14:01:01.406Z,25.50
2019-04-04T14:03:33.491Z,33.23
2019-04-04T14:06:05.555Z,28.90
2019-04-04T14:08:39.255Z,26.82
2019-04-04T14:11:09.255Z,30.80
2019-04-04T14:13:40.211Z,35.75
2019-04-04T14:16:11.198Z,29.92
2019-04-04T14:18:44.498Z,24.45
2019-04-04T14:21:14.853Z,30.20
2019-04-04T14:23:46.816Z,27.58
2019-04-04T14:26:17.800Z,30.08
2019-04-04T14:28:48.755Z,32.48
2019-04-04T14:31:19.739Z,32.42
2019-04-04T14:33:50.691Z,33.45
2019-04-04T14:36:21.767Z,27.87
2019-04-04T14:38:52.705Z,29.60
2019-04-04T14:41:23.677Z,24.37
2019-04-04T14:43:54.618Z,25.08
2019-04-04T14:46:25.588Z,34.92
2019-04-04T14:48:56.522Z,33.60
2019-04-04T14:51:28.491Z,27.98
2019-04-04T14:53:59.431Z,29.07
2019-04-04T14:56:30.420Z,31.82
2019-04-04T14:59:01.358Z,27.55
2019-04-04T15:01:34.966Z,28.05
2019-04-04T15:04:05.095Z,25.25
2019-04-04T15:06:36.065Z,25.23
2019-04-04T15:09:10.601Z,22.17
2019-04-04T15:11:41.576Z,29.00
2019-04-04T15:14:12.530Z,28.67
2019-04-04T15:16:43.508Z,29.42
2019-04-04T15:19:14.475Z,23.10
2019-04-04T15:21:45.455Z,18.67
2019-04-04T15:24:16.486Z,20.62
2019-04-04T15:26:47.625Z,19.32
2019-04-04T15:29:18.600Z,19.40
2019-04-04T15:31:49.536Z,18.25
2019-04-04T15:34:20.500Z,20.08
2019-04-04T15:36:51.436Z,20.75
2019-04-04T15:39:22.400Z,23.42
2019-04-04T15:41:53.340Z,27.05
2019-04-04T15:44:24.423Z,21.12
2019-04-04T15:46:55.357Z,14.20
2019-04-04T15:49:26.330Z,13.58
2019-04-04T15:51:59.642Z,12.88
2019-04-04T15:54:30.073Z,18.25
2019-04-04T15:57:01.005Z,17.27
2019-04-04T15:59:32.974Z,11.88
2019-04-04T16:02:04.113Z,28.10
2019-04-04T16:04:35.096Z,14.65
2019-04-04T16:07:06.524Z,10.03
2019-04-04T16:09:37.485Z,8.68
2019-04-04T16:12:08.424Z,9.80
2019-04-04T16:14:39.411Z,7.90
2019-04-04T16:17:10.366Z,5.67
2019-04-04T16:19:41.328Z,7.28
2019-04-04T16:22:17.986Z,7.95
2019-04-04T16:24:48.067Z,10.38
2019-04-04T16:27:19.039Z,7.58
2019-04-04T16:29:49.970Z,8.60
2019-04-04T16:32:20.965Z,7.00
2019-04-04T16:34:52.726Z,11.12
2019-04-04T16:37:23.837Z,6.67
2019-04-04T16:40:07.940Z,9.28
2019-04-04T16:42:27.741Z,9.50
2019-04-04T16:44:58.662Z,6.15
2019-04-04T16:47:29.810Z,5.78
2019-04-04T16:50:00.857Z,3.35
2019-04-04T16:52:32.915Z,6.33
2019-04-04T16:55:04.783Z,11.85
2019-04-04T16:57:35.748Z,6.08
2019-04-04T17:00:14.609Z,7.10
2019-04-04T17:02:45.577Z,6.05
2019-04-04T17:05:16.850Z,5.83
2019-04-04T17:07:47.809Z,5.92
2019-04-04T17:10:18.969Z,5.05
2019-04-04T17:12:49.940Z,4.65
2019-04-04T17:15:20.895Z,3.25
2019-04-04T17:17:51.833Z,4.50
2019-04-04T17:20:22.788Z,5.15
2019-04-04T17:22:53.752Z,8.45
2019-04-04T17:25:24.680Z,2.77
2019-04-04T17:27:55.658Z,6.03
2019-04-04T17:30:26.710Z,5.20
2019-04-04T17:32:57.737Z,2.12
2019-04-04T17:35:28.703Z,3.90
2019-04-04T17:37:59.680Z,2.80
2019-04-04T17:40:31.200Z,2.27
2019-04-04T17:43:02.363Z,2.42
2019-04-04T17:45:33.384Z,2.58
2019-04-04T17:48:04.315Z,3.05
2019-04-04T17:50:35.627Z,2.35
2019-04-04T17:53:06.705Z,4.55
2019-04-04T17:55:37.921Z,1.77
2019-04-04T17:58:09.316Z,2.85
2019-04-04T18:00:41.324Z,3.47
2019-04-04T18:03:12.294Z,3.30
2019-04-04T18:05:43.186Z,2.80
2019-04-04T18:08:14.117Z,2.52
2019-04-04T18:10:45.076Z,1.95
2019-04-04T18:13:16.138Z,1.47
2019-04-04T18:15:48.856Z,3.45
2019-04-04T18:18:19.816Z,2.90
2019-04-04T18:20:50.752Z,8.65
2019-04-04T18:23:21.825Z,3.75
2019-04-04T18:25:53.790Z,4.15
2019-04-04T18:28:24.739Z,8.58
2019-04-04T18:30:55.830Z,13.58
2019-04-04T18:33:26.812Z,5.20
2019-04-04T18:35:57.798Z,6.90
2019-04-04T18:38:28.760Z,8.58
2019-04-04T18:40:59.726Z,7.37
2019-04-04T18:43:30.693Z,7.80
2019-04-04T18:46:01.637Z,8.90
2019-04-04T18:48:32.617Z,6.58
2019-04-04T18:51:03.667Z,7.95
2019-04-04T18:53:34.599Z,7.95
2019-04-04T18:56:05.719Z,8.83
2019-04-04T18:58:36.681Z,5.80
2019-04-04T19:01:07.621Z,6.70
2019-04-04T19:03:38.579Z,4.92
2019-04-04T19:06:09.540Z,5.12
2019-04-04T19:08:40.548Z,4.17
2019-04-04T19:11:13.074Z,5.30
2019-04-04T19:13:44.848Z,5.25
2019-04-04T19:16:15.864Z,7.58
2019-04-04T19:18:46.905Z,5.22
2019-04-04T19:21:17.874Z,4.90
2019-04-04T19:23:49.792Z,5.75
2019-04-04T19:26:20.844Z,4.90
2019-04-04T19:28:51.805Z,5.65
2019-04-04T19:31:22.786Z,6.15
2019-04-04T19:33:53.750Z,5.90
2019-04-04T19:36:24.722Z,5.33
2019-04-04T19:38:56.778Z,6.20
2019-04-04T19:41:27.742Z,7.05
2019-04-04T19:43:58.706Z,7.30
2019-04-04T19:46:36.877Z,6.62
2019-04-04T19:49:02.457Z,8.70
2019-04-04T19:51:33.665Z,9.00
2019-04-04T19:54:05.630Z,8.08
2019-04-04T19:56:36.592Z,7.17
2019-04-04T19:59:07.824Z,8.80
2019-04-04T20:01:38.785Z,7.72
2019-04-04T20:04:10.036Z,7.83
2019-04-04T20:06:41.021Z,8.00
2019-04-04T20:09:12.058Z,7.40
2019-04-04T20:11:42.987Z,8.20
2019-04-04T20:14:13.955Z,5.72
2019-04-04T20:16:44.914Z,9.85
2019-04-04T20:19:15.861Z,11.10
2019-04-04T20:21:47.928Z,8.10
2019-04-04T20:24:20.469Z,7.58
2019-04-04T20:26:51.530Z,9.23
2019-04-04T20:29:22.551Z,9.60
2019-04-04T20:31:53.479Z,8.43
2019-04-04T20:34:24.449Z,8.03
2019-04-04T20:36:55.412Z,7.58
2019-04-04T20:39:26.445Z,7.90
2019-04-04T20:41:57.440Z,8.23
2019-04-04T20:44:28.447Z,8.08
2019-04-04T20:46:59.394Z,8.45
2019-04-04T20:49:30.444Z,8.85
2019-04-04T20:52:01.404Z,9.10
2019-04-04T20:54:32.343Z,9.08
2019-04-04T20:57:03.438Z,10.88
2019-04-04T20:59:34.397Z,9.53
2019-04-04T21:02:05.357Z,10.45
2019-04-04T21:04:36.375Z,12.90
2019-04-04T21:07:07.338Z,12.23
2019-04-04T21:09:38.278Z,11.28
2019-04-04T21:12:11.432Z,13.93
2019-04-04T21:14:42.548Z,11.88
2019-04-04T21:17:13.524Z,13.45
2019-04-04T21:19:44.522Z,12.28
2019-04-04T21:22:26.988Z,11.83
2019-04-04T21:24:48.124Z,14.23
2019-04-04T21:27:19.099Z,12.53
2019-04-04T21:29:50.050Z,15.20
2019-04-04T21:32:21.046Z,13.83
2019-04-04T21:34:52.023Z,14.05
2019-04-04T21:37:22.963Z,13.13
2019-04-04T21:39:53.962Z,14.07
2019-04-04T21:42:24.971Z,15.70
2019-04-04T21:44:55.903Z,16.00
2019-04-04T21:47:26.873Z,16.07
2019-04-04T21:49:57.844Z,16.17
2019-04-04T21:52:28.790Z,14.93
2019-04-04T21:54:59.882Z,16.17
2019-04-04T21:57:30.898Z,15.20
2019-04-04T22:00:01.835Z,18.37
2019-04-04T22:02:34.361Z,14.90
2019-04-04T22:05:07.427Z,15.93
2019-04-04T22:07:38.519Z,10.80
2019-04-04T22:10:10.488Z,14.95
2019-04-04T22:12:41.455Z,15.45
2019-04-04T22:15:12.871Z,16.73
2019-04-04T22:17:43.828Z,14.83
2019-04-04T22:20:15.797Z,14.25
2019-04-04T22:22:46.760Z,13.80
2019-04-04T22:25:17.694Z,14.75
2019-04-04T22:27:48.671Z,14.80
2019-04-04T22:30:20.959Z,15.28
2019-04-04T22:32:52.014Z,14.33
2019-04-04T22:35:23.137Z,14.40
2019-04-04T22:37:54.107Z,14.35
2019-04-04T22:40:25.046Z,15.20
2019-04-04T22:42:56.060Z,14.28
2019-04-04T22:45:27.094Z,15.95
2019-04-04T22:47:58.038Z,13.38
2019-04-04T22:50:29.007Z,14.45
2019-04-04T22:53:00.986Z,12.88
2019-04-04T22:55:32.070Z,13.22
2019-04-04T22:58:04.052Z,12.73
2019-04-04T23:00:35.115Z,15.70
2019-04-04T23:03:07.135Z,17.25
2019-04-04T23:05:38.074Z,14.38
2019-04-04T23:08:09.041Z,17.25
2019-04-04T23:10:40.007Z,16.02
2019-04-04T23:13:10.959Z,16.67
2019-04-04T23:15:41.931Z,15.15
2019-04-04T23:18:12.896Z,14.90
2019-04-04T23:20:43.882Z,13.93
2019-04-04T23:23:14.908Z,14.65
2019-04-04T23:25:45.886Z,14.58
2019-04-04T23:28:16.842Z,16.75
2019-04-04T23:30:47.868Z,14.13
2019-04-04T23:33:18.902Z,15.45
2019-04-04T23:35:49.973Z,15.20
2019-04-04T23:38:20.995Z,16.57
2019-04-04T23:40:51.967Z,14.83
2019-04-04T23:43:22.907Z,16.90
2019-04-04T23:45:53.882Z,12.55
2019-04-04T23:48:24.856Z,12.93
2019-04-04T23:50:55.790Z,18.23
2019-04-04T23:53:26.767Z,13.28
2019-04-04T23:55:57.806Z,14.98
2019-04-04T23:58:28.762Z,12.28
